sensor_id;sensor_type;location;lat;lon;timestamp;P1;durP1;ratioP1;P2;durP2;ratioP2
44784;SDS011;30507;53.160;8.210;2024-02-21T00:00:34;5.65;;;3.15;;
44784;SDS011;30507;53.160;8.210;2024-02-21T00:03:00;2.47;;;2.00;;
44784;SDS011;30507;53.160;8.210;2024-02-21T00:05:27;9.82;;;3.28;;
44784;SDS011;30507;53.160;8.210;2024-02-21T00:07:52;5.55;;;3.00;;
44784;SDS011;30507;53.160;8.210;2024-02-21T00:10:17;4.25;;;2.55;;
44784;SDS011;30507;53.160;8.210;2024-02-21T00:12:43;6.00;;;2.40;;
44784;SDS011;30507;53.160;8.210;2024-02-21T00:15:08;7.38;;;3.10;;
44784;SDS011;30507;53.160;8.210;2024-02-21T00:17:33;4.75;;;2.42;;
44784;SDS011;30507;53.160;8.210;2024-02-21T00:19:58;5.33;;;3.40;;
44784;SDS011;30507;53.160;8.210;2024-02-21T00:22:24;15.27;;;2.60;;
44784;SDS011;30507;53.160;8.210;2024-02-21T00:24:49;2.78;;;2.13;;
44784;SDS011;30507;53.160;8.210;2024-02-21T00:27:15;4.10;;;2.43;;
44784;SDS011;30507;53.160;8.210;2024-02-21T00:29:40;2.87;;;2.17;;
44784;SDS011;30507;53.160;8.210;2024-02-21T00:32:05;3.25;;;2.20;;
44784;SDS011;30507;53.160;8.210;2024-02-21T00:34:30;5.10;;;2.43;;
44784;SDS011;30507;53.160;8.210;2024-02-21T00:36:55;4.37;;;2.13;;
44784;SDS011;30507;53.160;8.210;2024-02-21T00:39:20;3.08;;;2.58;;
44784;SDS011;30507;53.160;8.210;2024-02-21T00:41:46;3.47;;;2.75;;
44784;SDS011;30507;53.160;8.210;2024-02-21T00:44:11;3.60;;;2.67;;
44784;SDS011;30507;53.160;8.210;2024-02-21T00:46:37;3.07;;;2.53;;
44784;SDS011;30507;53.160;8.210;2024-02-21T00:49:03;4.88;;;2.88;;
44784;SDS011;30507;53.160;8.210;2024-02-21T00:51:28;5.60;;;2.72;;
44784;SDS011;30507;53.160;8.210;2024-02-21T00:53:54;5.38;;;2.53;;
44784;SDS011;30507;53.160;8.210;2024-02-21T00:56:20;2.75;;;2.08;;
44784;SDS011;30507;53.160;8.210;2024-02-21T00:58:45;3.93;;;2.33;;
44784;SDS011;30507;53.160;8.210;2024-02-21T01:01:10;3.78;;;2.22;;
44784;SDS011;30507;53.160;8.210;2024-02-21T01:03:35;3.90;;;2.90;;
44784;SDS011;30507;53.160;8.210;2024-02-21T01:06:00;6.60;;;2.73;;
44784;SDS011;30507;53.160;8.210;2024-02-21T01:08:25;4.82;;;3.05;;
44784;SDS011;30507;53.160;8.210;2024-02-21T01:10:50;2.53;;;2.17;;
44784;SDS011;30507;53.160;8.210;2024-02-21T01:13:16;3.93;;;2.37;;
44784;SDS011;30507;53.160;8.210;2024-02-21T01:15:41;3.23;;;2.33;;
44784;SDS011;30507;53.160;8.210;2024-02-21T01:18:06;3.42;;;2.30;;
44784;SDS011;30507;53.160;8.210;2024-02-21T01:20:31;2.43;;;2.23;;
44784;SDS011;30507;53.160;8.210;2024-02-21T01:22:56;2.70;;;2.13;;
44784;SDS011;30507;53.160;8.210;2024-02-21T01:25:21;6.90;;;3.55;;
44784;SDS011;30507;53.160;8.210;2024-02-21T01:27:47;4.73;;;2.87;;
44784;SDS011;30507;53.160;8.210;2024-02-21T01:30:12;4.03;;;2.23;;
44784;SDS011;30507;53.160;8.210;2024-02-21T01:32:37;2.43;;;1.87;;
44784;SDS011;30507;53.160;8.210;2024-02-21T01:35:02;3.33;;;2.57;;
44784;SDS011;30507;53.160;8.210;2024-02-21T01:37:27;4.20;;;2.73;;
44784;SDS011;30507;53.160;8.210;2024-02-21T01:39:53;4.20;;;1.83;;
44784;SDS011;30507;53.160;8.210;2024-02-21T01:42:18;2.90;;;1.80;;
44784;SDS011;30507;53.160;8.210;2024-02-21T01:44:43;5.20;;;2.47;;
44784;SDS011;30507;53.160;8.210;2024-02-21T01:47:08;4.07;;;2.20;;
44784;SDS011;30507;53.160;8.210;2024-02-21T01:49:33;2.83;;;2.00;;
44784;SDS011;30507;53.160;8.210;2024-02-21T01:51:59;3.10;;;2.20;;
44784;SDS011;30507;53.160;8.210;2024-02-21T01:54:24;4.03;;;1.92;;
44784;SDS011;30507;53.160;8.210;2024-02-21T01:56:49;5.65;;;2.85;;
44784;SDS011;30507;53.160;8.210;2024-02-21T01:59:15;3.80;;;2.83;;
44784;SDS011;30507;53.160;8.210;2024-02-21T02:01:41;4.97;;;2.08;;
44784;SDS011;30507;53.160;8.210;2024-02-21T02:04:06;3.20;;;2.40;;
44784;SDS011;30507;53.160;8.210;2024-02-21T02:06:31;4.73;;;2.27;;
44784;SDS011;30507;53.160;8.210;2024-02-21T02:08:57;1.90;;;1.77;;
44784;SDS011;30507;53.160;8.210;2024-02-21T02:11:22;4.57;;;2.30;;
44784;SDS011;30507;53.160;8.210;2024-02-21T02:13:47;5.00;;;3.13;;
44784;SDS011;30507;53.160;8.210;2024-02-21T02:16:12;3.83;;;2.60;;
44784;SDS011;30507;53.160;8.210;2024-02-21T02:18:38;2.27;;;1.53;;
44784;SDS011;30507;53.160;8.210;2024-02-21T02:21:04;4.05;;;2.65;;
44784;SDS011;30507;53.160;8.210;2024-02-21T02:23:30;3.20;;;2.40;;
44784;SDS011;30507;53.160;8.210;2024-02-21T02:25:56;3.25;;;2.35;;
44784;SDS011;30507;53.160;8.210;2024-02-21T02:28:21;2.35;;;1.80;;
44784;SDS011;30507;53.160;8.210;2024-02-21T02:30:47;7.17;;;2.47;;
44784;SDS011;30507;53.160;8.210;2024-02-21T02:33:12;3.60;;;2.90;;
44784;SDS011;30507;53.160;8.210;2024-02-21T02:35:37;2.90;;;2.00;;
44784;SDS011;30507;53.160;8.210;2024-02-21T02:38:03;2.60;;;2.00;;
44784;SDS011;30507;53.160;8.210;2024-02-21T02:40:28;2.35;;;2.03;;
44784;SDS011;30507;53.160;8.210;2024-02-21T02:42:54;3.95;;;2.20;;
44784;SDS011;30507;53.160;8.210;2024-02-21T02:45:20;2.63;;;2.00;;
44784;SDS011;30507;53.160;8.210;2024-02-21T02:47:46;4.72;;;2.90;;
44784;SDS011;30507;53.160;8.210;2024-02-21T02:50:11;2.77;;;1.93;;
44784;SDS011;30507;53.160;8.210;2024-02-21T02:52:36;2.63;;;1.88;;
44784;SDS011;30507;53.160;8.210;2024-02-21T02:55:01;2.70;;;1.88;;
44784;SDS011;30507;53.160;8.210;2024-02-21T02:57:27;3.03;;;1.80;;
44784;SDS011;30507;53.160;8.210;2024-02-21T02:59:52;1.70;;;1.60;;
44784;SDS011;30507;53.160;8.210;2024-02-21T03:02:17;4.93;;;2.17;;
44784;SDS011;30507;53.160;8.210;2024-02-21T03:04:43;3.03;;;2.10;;
44784;SDS011;30507;53.160;8.210;2024-02-21T03:07:08;3.17;;;1.95;;
44784;SDS011;30507;53.160;8.210;2024-02-21T03:09:33;4.57;;;1.73;;
44784;SDS011;30507;53.160;8.210;2024-02-21T03:11:58;3.42;;;1.92;;
44784;SDS011;30507;53.160;8.210;2024-02-21T03:14:28;2.95;;;1.58;;
44784;SDS011;30507;53.160;8.210;2024-02-21T03:16:53;7.57;;;1.92;;
44784;SDS011;30507;53.160;8.210;2024-02-21T03:19:18;3.03;;;1.77;;
44784;SDS011;30507;53.160;8.210;2024-02-21T03:21:43;2.07;;;1.70;;
44784;SDS011;30507;53.160;8.210;2024-02-21T03:24:08;3.00;;;1.67;;
44784;SDS011;30507;53.160;8.210;2024-02-21T03:26:33;3.20;;;2.20;;
44784;SDS011;30507;53.160;8.210;2024-02-21T03:28:58;3.93;;;2.70;;
44784;SDS011;30507;53.160;8.210;2024-02-21T03:31:23;1.77;;;1.42;;
44784;SDS011;30507;53.160;8.210;2024-02-21T03:33:49;2.23;;;2.03;;
44784;SDS011;30507;53.160;8.210;2024-02-21T03:36:14;3.20;;;2.03;;
44784;SDS011;30507;53.160;8.210;2024-02-21T03:38:40;2.88;;;1.35;;
44784;SDS011;30507;53.160;8.210;2024-02-21T03:41:05;2.57;;;2.07;;
44784;SDS011;30507;53.160;8.210;2024-02-21T03:43:30;4.30;;;2.87;;
44784;SDS011;30507;53.160;8.210;2024-02-21T03:45:55;3.63;;;1.67;;
44784;SDS011;30507;53.160;8.210;2024-02-21T03:48:21;1.97;;;1.60;;
44784;SDS011;30507;53.160;8.210;2024-02-21T03:50:46;3.00;;;2.00;;
44784;SDS011;30507;53.160;8.210;2024-02-21T03:53:11;2.42;;;2.00;;
44784;SDS011;30507;53.160;8.210;2024-02-21T03:55:37;2.60;;;1.95;;
44784;SDS011;30507;53.160;8.210;2024-02-21T03:58:02;2.92;;;1.83;;
44784;SDS011;30507;53.160;8.210;2024-02-21T04:00:27;2.80;;;1.60;;
44784;SDS011;30507;53.160;8.210;2024-02-21T04:02:52;1.90;;;1.80;;
44784;SDS011;30507;53.160;8.210;2024-02-21T04:05:18;3.33;;;1.83;;
44784;SDS011;30507;53.160;8.210;2024-02-21T04:07:43;2.67;;;2.03;;
44784;SDS011;30507;53.160;8.210;2024-02-21T04:10:08;2.07;;;1.63;;
44784;SDS011;30507;53.160;8.210;2024-02-21T04:12:33;3.10;;;1.70;;
44784;SDS011;30507;53.160;8.210;2024-02-21T04:14:58;1.38;;;1.27;;
44784;SDS011;30507;53.160;8.210;2024-02-21T04:17:23;1.90;;;1.60;;
44784;SDS011;30507;53.160;8.210;2024-02-21T04:19:49;2.25;;;1.88;;
44784;SDS011;30507;53.160;8.210;2024-02-21T04:22:14;3.00;;;1.43;;
44784;SDS011;30507;53.160;8.210;2024-02-21T04:24:39;2.50;;;1.93;;
44784;SDS011;30507;53.160;8.210;2024-02-21T04:27:04;2.40;;;1.70;;
44784;SDS011;30507;53.160;8.210;2024-02-21T04:29:29;1.97;;;1.30;;
44784;SDS011;30507;53.160;8.210;2024-02-21T04:31:54;2.83;;;1.50;;
44784;SDS011;30507;53.160;8.210;2024-02-21T04:34:19;1.88;;;1.42;;
44784;SDS011;30507;53.160;8.210;2024-02-21T04:36:45;2.42;;;1.65;;
44784;SDS011;30507;53.160;8.210;2024-02-21T04:39:10;2.38;;;1.45;;
44784;SDS011;30507;53.160;8.210;2024-02-21T04:41:36;1.98;;;1.65;;
44784;SDS011;30507;53.160;8.210;2024-02-21T04:44:01;5.43;;;2.63;;
44784;SDS011;30507;53.160;8.210;2024-02-21T04:46:28;1.95;;;1.60;;
44784;SDS011;30507;53.160;8.210;2024-02-21T04:48:53;3.17;;;1.87;;
44784;SDS011;30507;53.160;8.210;2024-02-21T04:51:19;2.33;;;1.73;;
44784;SDS011;30507;53.160;8.210;2024-02-21T04:53:44;2.53;;;1.70;;
44784;SDS011;30507;53.160;8.210;2024-02-21T04:56:09;2.65;;;1.45;;
44784;SDS011;30507;53.160;8.210;2024-02-21T04:58:37;1.67;;;1.33;;
44784;SDS011;30507;53.160;8.210;2024-02-21T05:01:02;1.77;;;1.63;;
44784;SDS011;30507;53.160;8.210;2024-02-21T05:03:27;1.93;;;1.53;;
44784;SDS011;30507;53.160;8.210;2024-02-21T05:05:53;2.17;;;1.57;;
44784;SDS011;30507;53.160;8.210;2024-02-21T05:08:18;2.72;;;2.35;;
44784;SDS011;30507;53.160;8.210;2024-02-21T05:10:43;2.83;;;1.85;;
44784;SDS011;30507;53.160;8.210;2024-02-21T05:13:08;2.53;;;1.80;;
44784;SDS011;30507;53.160;8.210;2024-02-21T05:15:34;2.17;;;1.58;;
44784;SDS011;30507;53.160;8.210;2024-02-21T05:17:59;3.67;;;1.97;;
44784;SDS011;30507;53.160;8.210;2024-02-21T05:20:24;5.22;;;1.80;;
44784;SDS011;30507;53.160;8.210;2024-02-21T05:22:49;4.20;;;2.58;;
44784;SDS011;30507;53.160;8.210;2024-02-21T05:25:14;7.80;;;3.15;;
44784;SDS011;30507;53.160;8.210;2024-02-21T05:27:39;6.17;;;3.17;;
44784;SDS011;30507;53.160;8.210;2024-02-21T05:30:05;5.40;;;3.10;;
44784;SDS011;30507;53.160;8.210;2024-02-21T05:32:31;6.05;;;2.78;;
44784;SDS011;30507;53.160;8.210;2024-02-21T05:34:56;7.25;;;3.00;;
44784;SDS011;30507;53.160;8.210;2024-02-21T05:37:23;9.52;;;3.35;;
44784;SDS011;30507;53.160;8.210;2024-02-21T05:39:48;8.95;;;3.38;;
44784;SDS011;30507;53.160;8.210;2024-02-21T05:42:13;5.70;;;3.63;;
44784;SDS011;30507;53.160;8.210;2024-02-21T05:44:39;5.17;;;2.90;;
44784;SDS011;30507;53.160;8.210;2024-02-21T05:47:04;8.77;;;3.47;;
44784;SDS011;30507;53.160;8.210;2024-02-21T05:49:29;6.97;;;3.78;;
44784;SDS011;30507;53.160;8.210;2024-02-21T05:51:54;9.57;;;3.17;;
44784;SDS011;30507;53.160;8.210;2024-02-21T05:54:19;10.13;;;3.97;;
44784;SDS011;30507;53.160;8.210;2024-02-21T05:56:45;6.93;;;4.13;;
44784;SDS011;30507;53.160;8.210;2024-02-21T05:59:10;6.70;;;3.95;;
44784;SDS011;30507;53.160;8.210;2024-02-21T06:01:36;10.07;;;3.57;;
44784;SDS011;30507;53.160;8.210;2024-02-21T06:04:01;10.30;;;4.33;;
44784;SDS011;30507;53.160;8.210;2024-02-21T06:06:26;7.90;;;3.43;;
44784;SDS011;30507;53.160;8.210;2024-02-21T06:08:51;15.80;;;5.67;;
44784;SDS011;30507;53.160;8.210;2024-02-21T06:11:16;8.53;;;4.60;;
44784;SDS011;30507;53.160;8.210;2024-02-21T06:13:41;15.13;;;5.72;;
44784;SDS011;30507;53.160;8.210;2024-02-21T06:16:07;16.43;;;6.23;;
44784;SDS011;30507;53.160;8.210;2024-02-21T06:18:33;13.20;;;5.40;;
44784;SDS011;30507;53.160;8.210;2024-02-21T06:20:59;19.45;;;7.20;;
44784;SDS011;30507;53.160;8.210;2024-02-21T06:23:24;14.38;;;4.97;;
44784;SDS011;30507;53.160;8.210;2024-02-21T06:25:49;14.73;;;6.03;;
44784;SDS011;30507;53.160;8.210;2024-02-21T06:28:14;14.07;;;4.82;;
44784;SDS011;30507;53.160;8.210;2024-02-21T06:30:40;13.77;;;7.35;;
44784;SDS011;30507;53.160;8.210;2024-02-21T06:33:05;14.13;;;6.18;;
44784;SDS011;30507;53.160;8.210;2024-02-21T06:35:30;18.07;;;6.83;;
44784;SDS011;30507;53.160;8.210;2024-02-21T06:37:55;15.87;;;5.50;;
44784;SDS011;30507;53.160;8.210;2024-02-21T06:40:21;16.17;;;5.13;;
44784;SDS011;30507;53.160;8.210;2024-02-21T06:42:47;13.50;;;4.93;;
44784;SDS011;30507;53.160;8.210;2024-02-21T06:45:12;18.57;;;6.90;;
44784;SDS011;30507;53.160;8.210;2024-02-21T06:47:37;14.27;;;6.03;;
44784;SDS011;30507;53.160;8.210;2024-02-21T06:50:02;10.90;;;5.00;;
44784;SDS011;30507;53.160;8.210;2024-02-21T06:52:28;20.80;;;6.37;;
44784;SDS011;30507;53.160;8.210;2024-02-21T06:54:53;18.53;;;5.37;;
44784;SDS011;30507;53.160;8.210;2024-02-21T06:57:18;14.30;;;6.67;;
44784;SDS011;30507;53.160;8.210;2024-02-21T06:59:43;16.80;;;5.90;;
44784;SDS011;30507;53.160;8.210;2024-02-21T07:02:08;15.93;;;7.13;;
44784;SDS011;30507;53.160;8.210;2024-02-21T07:04:33;15.52;;;6.97;;
44784;SDS011;30507;53.160;8.210;2024-02-21T07:06:59;30.63;;;7.87;;
44784;SDS011;30507;53.160;8.210;2024-02-21T07:09:24;16.17;;;6.10;;
44784;SDS011;30507;53.160;8.210;2024-02-21T07:11:49;19.77;;;6.47;;
44784;SDS011;30507;53.160;8.210;2024-02-21T07:14:14;14.98;;;5.47;;
44784;SDS011;30507;53.160;8.210;2024-02-21T07:16:40;18.05;;;6.80;;
44784;SDS011;30507;53.160;8.210;2024-02-21T07:19:05;10.93;;;5.13;;
44784;SDS011;30507;53.160;8.210;2024-02-21T07:21:30;15.53;;;6.53;;
44784;SDS011;30507;53.160;8.210;2024-02-21T07:23:56;11.07;;;5.03;;
44784;SDS011;30507;53.160;8.210;2024-02-21T07:26:21;13.93;;;6.43;;
44784;SDS011;30507;53.160;8.210;2024-02-21T07:28:46;12.57;;;5.47;;
44784;SDS011;30507;53.160;8.210;2024-02-21T07:31:12;15.47;;;6.53;;
44784;SDS011;30507;53.160;8.210;2024-02-21T07:33:37;11.73;;;5.83;;
44784;SDS011;30507;53.160;8.210;2024-02-21T07:36:05;14.65;;;6.05;;
44784;SDS011;30507;53.160;8.210;2024-02-21T07:38:30;14.70;;;6.32;;
44784;SDS011;30507;53.160;8.210;2024-02-21T07:40:55;16.65;;;7.85;;
44784;SDS011;30507;53.160;8.210;2024-02-21T07:43:20;14.17;;;6.40;;
44784;SDS011;30507;53.160;8.210;2024-02-21T07:45:47;13.15;;;6.72;;
44784;SDS011;30507;53.160;8.210;2024-02-21T07:48:12;14.23;;;7.03;;
44784;SDS011;30507;53.160;8.210;2024-02-21T07:50:37;17.23;;;6.50;;
44784;SDS011;30507;53.160;8.210;2024-02-21T07:53:02;18.70;;;8.23;;
44784;SDS011;30507;53.160;8.210;2024-02-21T07:55:28;17.23;;;7.00;;
44784;SDS011;30507;53.160;8.210;2024-02-21T07:57:53;15.33;;;6.27;;
44784;SDS011;30507;53.160;8.210;2024-02-21T08:00:18;15.10;;;7.43;;
44784;SDS011;30507;53.160;8.210;2024-02-21T08:02:47;12.20;;;6.43;;
44784;SDS011;30507;53.160;8.210;2024-02-21T08:05:12;18.25;;;6.70;;
44784;SDS011;30507;53.160;8.210;2024-02-21T08:07:38;15.83;;;6.53;;
44784;SDS011;30507;53.160;8.210;2024-02-21T08:10:03;19.20;;;6.82;;
44784;SDS011;30507;53.160;8.210;2024-02-21T08:12:29;18.63;;;7.28;;
44784;SDS011;30507;53.160;8.210;2024-02-21T08:14:54;15.57;;;5.75;;
44784;SDS011;30507;53.160;8.210;2024-02-21T08:17:19;16.40;;;6.27;;
44784;SDS011;30507;53.160;8.210;2024-02-21T08:19:44;14.05;;;6.78;;
44784;SDS011;30507;53.160;8.210;2024-02-21T08:22:09;17.17;;;6.53;;
44784;SDS011;30507;53.160;8.210;2024-02-21T08:24:34;14.05;;;7.70;;
44784;SDS011;30507;53.160;8.210;2024-02-21T08:26:59;17.38;;;7.30;;
44784;SDS011;30507;53.160;8.210;2024-02-21T08:29:24;12.43;;;6.45;;
44784;SDS011;30507;53.160;8.210;2024-02-21T08:31:50;19.58;;;7.18;;
44784;SDS011;30507;53.160;8.210;2024-02-21T08:34:15;16.30;;;6.90;;
44784;SDS011;30507;53.160;8.210;2024-02-21T08:36:40;13.53;;;5.60;;
44784;SDS011;30507;53.160;8.210;2024-02-21T08:39:05;15.50;;;7.30;;
44784;SDS011;30507;53.160;8.210;2024-02-21T08:41:31;15.67;;;7.03;;
44784;SDS011;30507;53.160;8.210;2024-02-21T08:43:56;14.35;;;6.30;;
44784;SDS011;30507;53.160;8.210;2024-02-21T08:46:21;15.67;;;5.80;;
44784;SDS011;30507;53.160;8.210;2024-02-21T08:48:47;16.23;;;7.03;;
44784;SDS011;30507;53.160;8.210;2024-02-21T08:51:12;12.00;;;6.30;;
44784;SDS011;30507;53.160;8.210;2024-02-21T08:53:38;12.23;;;6.40;;
44784;SDS011;30507;53.160;8.210;2024-02-21T08:56:03;11.63;;;5.70;;
44784;SDS011;30507;53.160;8.210;2024-02-21T08:58:28;14.20;;;6.75;;
44784;SDS011;30507;53.160;8.210;2024-02-21T09:00:54;13.27;;;4.88;;
44784;SDS011;30507;53.160;8.210;2024-02-21T09:03:19;12.00;;;5.17;;
44784;SDS011;30507;53.160;8.210;2024-02-21T09:05:45;13.27;;;5.72;;
44784;SDS011;30507;53.160;8.210;2024-02-21T09:08:10;10.53;;;5.43;;
44784;SDS011;30507;53.160;8.210;2024-02-21T09:10:35;15.20;;;6.20;;
44784;SDS011;30507;53.160;8.210;2024-02-21T09:13:00;11.70;;;7.15;;
44784;SDS011;30507;53.160;8.210;2024-02-21T09:15:25;14.02;;;6.72;;
44784;SDS011;30507;53.160;8.210;2024-02-21T09:17:51;12.32;;;4.97;;
44784;SDS011;30507;53.160;8.210;2024-02-21T09:20:16;12.30;;;6.38;;
44784;SDS011;30507;53.160;8.210;2024-02-21T09:22:42;10.07;;;5.37;;
44784;SDS011;30507;53.160;8.210;2024-02-21T09:25:07;12.27;;;5.40;;
44784;SDS011;30507;53.160;8.210;2024-02-21T09:27:32;12.45;;;5.03;;
44784;SDS011;30507;53.160;8.210;2024-02-21T09:29:57;12.30;;;6.47;;
44784;SDS011;30507;53.160;8.210;2024-02-21T09:32:23;10.73;;;5.18;;
44784;SDS011;30507;53.160;8.210;2024-02-21T09:34:48;10.23;;;5.07;;
44784;SDS011;30507;53.160;8.210;2024-02-21T09:37:13;9.60;;;5.78;;
44784;SDS011;30507;53.160;8.210;2024-02-21T09:39:38;7.20;;;5.07;;
44784;SDS011;30507;53.160;8.210;2024-02-21T09:42:05;12.95;;;5.60;;
44784;SDS011;30507;53.160;8.210;2024-02-21T09:44:32;11.88;;;5.20;;
44784;SDS011;30507;53.160;8.210;2024-02-21T09:47:09;10.27;;;4.27;;
44784;SDS011;30507;53.160;8.210;2024-02-21T09:49:36;8.30;;;4.93;;
44784;SDS011;30507;53.160;8.210;2024-02-21T09:52:04;11.85;;;5.80;;
44784;SDS011;30507;53.160;8.210;2024-02-21T09:54:29;9.95;;;4.60;;
44784;SDS011;30507;53.160;8.210;2024-02-21T09:59:23;10.27;;;5.35;;
44784;SDS011;30507;53.160;8.210;2024-02-21T10:01:49;8.27;;;5.05;;
44784;SDS011;30507;53.160;8.210;2024-02-21T10:04:15;10.43;;;5.65;;
44784;SDS011;30507;53.160;8.210;2024-02-21T10:06:40;15.40;;;5.53;;
44784;SDS011;30507;53.160;8.210;2024-02-21T10:09:06;9.50;;;4.60;;
44784;SDS011;30507;53.160;8.210;2024-02-21T10:11:31;12.70;;;5.05;;
44784;SDS011;30507;53.160;8.210;2024-02-21T10:14:04;7.53;;;4.63;;
44784;SDS011;30507;53.160;8.210;2024-02-21T10:16:30;6.43;;;4.38;;
44784;SDS011;30507;53.160;8.210;2024-02-21T10:18:55;10.30;;;4.93;;
44784;SDS011;30507;53.160;8.210;2024-02-21T10:21:20;8.15;;;5.15;;
44784;SDS011;30507;53.160;8.210;2024-02-21T10:23:47;8.57;;;4.90;;
44784;SDS011;30507;53.160;8.210;2024-02-21T10:26:13;9.90;;;4.80;;
44784;SDS011;30507;53.160;8.210;2024-02-21T10:28:38;9.50;;;4.63;;
44784;SDS011;30507;53.160;8.210;2024-02-21T10:31:07;7.15;;;4.25;;
44784;SDS011;30507;53.160;8.210;2024-02-21T10:33:32;8.65;;;4.75;;
44784;SDS011;30507;53.160;8.210;2024-02-21T10:36:05;7.97;;;4.10;;
44784;SDS011;30507;53.160;8.210;2024-02-21T10:38:31;7.45;;;4.20;;
44784;SDS011;30507;53.160;8.210;2024-02-21T10:40:56;8.80;;;4.70;;
44784;SDS011;30507;53.160;8.210;2024-02-21T10:43:23;10.57;;;4.22;;
44784;SDS011;30507;53.160;8.210;2024-02-21T10:45:49;8.50;;;4.80;;
44784;SDS011;30507;53.160;8.210;2024-02-21T10:48:16;7.72;;;3.90;;
44784;SDS011;30507;53.160;8.210;2024-02-21T10:55:44;7.18;;;4.18;;
44784;SDS011;30507;53.160;8.210;2024-02-21T10:58:15;9.35;;;5.55;;
44784;SDS011;30507;53.160;8.210;2024-02-21T11:00:40;7.53;;;3.73;;
44784;SDS011;30507;53.160;8.210;2024-02-21T11:03:05;8.07;;;4.13;;
44784;SDS011;30507;53.160;8.210;2024-02-21T11:05:30;6.73;;;3.87;;
44784;SDS011;30507;53.160;8.210;2024-02-21T11:07:57;7.25;;;3.95;;
44784;SDS011;30507;53.160;8.210;2024-02-21T11:10:23;8.07;;;3.65;;
44784;SDS011;30507;53.160;8.210;2024-02-21T11:12:48;7.75;;;4.40;;
44784;SDS011;30507;53.160;8.210;2024-02-21T11:15:13;9.25;;;4.68;;
44784;SDS011;30507;53.160;8.210;2024-02-21T11:17:39;6.78;;;3.97;;
44784;SDS011;30507;53.160;8.210;2024-02-21T11:20:11;7.17;;;3.93;;
44784;SDS011;30507;53.160;8.210;2024-02-21T11:22:41;7.55;;;3.85;;
44784;SDS011;30507;53.160;8.210;2024-02-21T11:25:07;12.60;;;4.57;;
44784;SDS011;30507;53.160;8.210;2024-02-21T11:27:46;7.82;;;4.18;;
44784;SDS011;30507;53.160;8.210;2024-02-21T11:30:12;9.35;;;5.60;;
44784;SDS011;30507;53.160;8.210;2024-02-21T11:32:37;10.43;;;4.22;;
44784;SDS011;30507;53.160;8.210;2024-02-21T11:35:03;6.47;;;4.40;;
44784;SDS011;30507;53.160;8.210;2024-02-21T11:37:31;10.43;;;4.07;;
44784;SDS011;30507;53.160;8.210;2024-02-21T11:40:02;6.13;;;3.95;;
44784;SDS011;30507;53.160;8.210;2024-02-21T11:42:28;6.55;;;3.42;;
44784;SDS011;30507;53.160;8.210;2024-02-21T11:44:54;9.77;;;4.32;;
44784;SDS011;30507;53.160;8.210;2024-02-21T11:47:21;5.15;;;3.53;;
44784;SDS011;30507;53.160;8.210;2024-02-21T11:49:47;9.93;;;4.93;;
44784;SDS011;30507;53.160;8.210;2024-02-21T11:52:15;7.05;;;4.28;;
44784;SDS011;30507;53.160;8.210;2024-02-21T11:54:40;5.32;;;4.15;;
44784;SDS011;30507;53.160;8.210;2024-02-21T11:57:05;5.53;;;3.40;;
44784;SDS011;30507;53.160;8.210;2024-02-21T11:59:30;4.90;;;3.23;;
44784;SDS011;30507;53.160;8.210;2024-02-21T12:01:57;7.05;;;3.92;;
44784;SDS011;30507;53.160;8.210;2024-02-21T12:04:23;10.63;;;4.80;;
44784;SDS011;30507;53.160;8.210;2024-02-21T12:06:52;7.15;;;4.63;;
44784;SDS011;30507;53.160;8.210;2024-02-21T12:09:18;4.93;;;3.80;;
44784;SDS011;30507;53.160;8.210;2024-02-21T12:11:43;4.60;;;2.97;;
44784;SDS011;30507;53.160;8.210;2024-02-21T12:14:09;6.80;;;3.08;;
44784;SDS011;30507;53.160;8.210;2024-02-21T12:16:34;7.78;;;4.00;;
44784;SDS011;30507;53.160;8.210;2024-02-21T12:19:02;7.70;;;4.05;;
44784;SDS011;30507;53.160;8.210;2024-02-21T12:21:32;6.47;;;3.38;;
44784;SDS011;30507;53.160;8.210;2024-02-21T12:23:58;4.70;;;3.35;;
44784;SDS011;30507;53.160;8.210;2024-02-21T12:26:23;6.97;;;3.13;;
44784;SDS011;30507;53.160;8.210;2024-02-21T12:28:48;10.23;;;4.77;;
44784;SDS011;30507;53.160;8.210;2024-02-21T12:31:13;5.07;;;3.60;;
44784;SDS011;30507;53.160;8.210;2024-02-21T12:33:38;5.63;;;3.80;;
44784;SDS011;30507;53.160;8.210;2024-02-21T12:36:04;5.32;;;3.72;;
44784;SDS011;30507;53.160;8.210;2024-02-21T12:38:29;4.67;;;3.53;;
44784;SDS011;30507;53.160;8.210;2024-02-21T12:40:54;4.82;;;3.08;;
44784;SDS011;30507;53.160;8.210;2024-02-21T12:43:19;7.67;;;4.67;;
44784;SDS011;30507;53.160;8.210;2024-02-21T12:45:45;7.63;;;3.70;;
44784;SDS011;30507;53.160;8.210;2024-02-21T12:48:10;5.60;;;4.07;;
44784;SDS011;30507;53.160;8.210;2024-02-21T12:50:35;8.43;;;3.28;;
44784;SDS011;30507;53.160;8.210;2024-02-21T12:53:00;7.37;;;4.33;;
44784;SDS011;30507;53.160;8.210;2024-02-21T12:55:25;6.28;;;4.15;;
44784;SDS011;30507;53.160;8.210;2024-02-21T12:57:51;5.82;;;3.05;;
44784;SDS011;30507;53.160;8.210;2024-02-21T13:00:17;5.78;;;3.50;;
44784;SDS011;30507;53.160;8.210;2024-02-21T13:02:42;4.68;;;3.03;;
44784;SDS011;30507;53.160;8.210;2024-02-21T13:05:08;5.57;;;4.00;;
44784;SDS011;30507;53.160;8.210;2024-02-21T13:07:33;6.83;;;3.37;;
44784;SDS011;30507;53.160;8.210;2024-02-21T13:09:58;6.53;;;3.95;;
44784;SDS011;30507;53.160;8.210;2024-02-21T13:12:23;6.40;;;3.27;;
44784;SDS011;30507;53.160;8.210;2024-02-21T13:14:51;5.45;;;2.97;;
44784;SDS011;30507;53.160;8.210;2024-02-21T13:17:16;5.30;;;3.33;;
44784;SDS011;30507;53.160;8.210;2024-02-21T13:19:41;4.93;;;2.65;;
44784;SDS011;30507;53.160;8.210;2024-02-21T13:22:06;5.88;;;3.30;;
44784;SDS011;30507;53.160;8.210;2024-02-21T13:24:32;7.95;;;4.05;;
44784;SDS011;30507;53.160;8.210;2024-02-21T13:26:57;5.53;;;3.43;;
44784;SDS011;30507;53.160;8.210;2024-02-21T13:29:22;5.47;;;3.33;;
44784;SDS011;30507;53.160;8.210;2024-02-21T13:31:47;5.03;;;3.42;;
44784;SDS011;30507;53.160;8.210;2024-02-21T13:34:12;5.57;;;2.97;;
44784;SDS011;30507;53.160;8.210;2024-02-21T13:36:38;5.30;;;3.73;;
44784;SDS011;30507;53.160;8.210;2024-02-21T13:39:03;6.15;;;3.08;;
44784;SDS011;30507;53.160;8.210;2024-02-21T13:41:30;10.35;;;3.47;;
44784;SDS011;30507;53.160;8.210;2024-02-21T13:43:55;4.88;;;3.28;;
44784;SDS011;30507;53.160;8.210;2024-02-21T13:46:21;7.43;;;3.45;;
44784;SDS011;30507;53.160;8.210;2024-02-21T13:48:47;7.43;;;3.20;;
44784;SDS011;30507;53.160;8.210;2024-02-21T13:51:12;7.23;;;3.23;;
44784;SDS011;30507;53.160;8.210;2024-02-21T13:53:37;5.67;;;3.30;;
44784;SDS011;30507;53.160;8.210;2024-02-21T13:56:02;4.45;;;3.17;;
44784;SDS011;30507;53.160;8.210;2024-02-21T13:58:27;5.03;;;2.90;;
44784;SDS011;30507;53.160;8.210;2024-02-21T14:00:53;6.07;;;3.40;;
44784;SDS011;30507;53.160;8.210;2024-02-21T14:03:18;4.40;;;2.55;;
44784;SDS011;30507;53.160;8.210;2024-02-21T14:05:45;5.78;;;3.35;;
44784;SDS011;30507;53.160;8.210;2024-02-21T14:08:10;5.93;;;3.77;;
44784;SDS011;30507;53.160;8.210;2024-02-21T14:10:35;5.93;;;3.03;;
44784;SDS011;30507;53.160;8.210;2024-02-21T14:13:02;7.80;;;3.60;;
44784;SDS011;30507;53.160;8.210;2024-02-21T14:15:27;4.33;;;3.83;;
44784;SDS011;30507;53.160;8.210;2024-02-21T14:17:52;6.20;;;3.20;;
44784;SDS011;30507;53.160;8.210;2024-02-21T14:20:17;6.18;;;2.75;;
44784;SDS011;30507;53.160;8.210;2024-02-21T14:22:42;8.23;;;3.25;;
44784;SDS011;30507;53.160;8.210;2024-02-21T14:25:08;5.33;;;3.00;;
44784;SDS011;30507;53.160;8.210;2024-02-21T14:27:33;4.88;;;2.63;;
44784;SDS011;30507;53.160;8.210;2024-02-21T14:30:00;4.50;;;2.90;;
44784;SDS011;30507;53.160;8.210;2024-02-21T14:32:27;5.63;;;3.08;;
44784;SDS011;30507;53.160;8.210;2024-02-21T14:34:52;10.13;;;2.70;;
44784;SDS011;30507;53.160;8.210;2024-02-21T14:37:17;6.50;;;2.80;;
44784;SDS011;30507;53.160;8.210;2024-02-21T14:39:42;4.13;;;2.45;;